Saint-Lin, Canada
Current Conditions -  °F | °C
As of 3:00 AM on Monday 24 Nov 2014 (Local Time) from CYMX Reporting Station
Haze Haze  
Wind Chill: -1°   Ceiling: 200
Heat Index:   Visibility: 1.5mi
Dew Point:   Wind: 7mph
Humidity: 93%   Direction: 40°NE
Pressure: 29.77"   Gusts: NA
Location:  45.85°N, 73.77°W
Report Text: CYMX 240800Z 04006KT 1 1/2SM BR BKN002 OVC100 02/01 A2977 RMK FG3SF2AC3 VIS VRB 1-2 PRESFR SLP085
Loading
Personal Weather Stations






























Interactive Weather Map New forecast layout! Learn more

10-Day Weather Forecast

Advertisements
Track Severe Weather on mobile